createdAt,value
2023-02-11T00:01:36.212Z,60.52
2023-02-11T00:04:06.675Z,59.92
2023-02-11T00:06:39.268Z,59.74
2023-02-11T00:09:07.780Z,59.50
2023-02-11T00:11:35.871Z,59.72
2023-02-11T00:14:09.501Z,59.43
2023-02-11T00:16:37.283Z,59.14
2023-02-11T00:19:06.500Z,59.84
2023-02-11T00:21:36.059Z,60.76
2023-02-11T00:24:06.196Z,60.83
2023-02-11T00:26:36.560Z,58.78
2023-02-11T00:29:05.976Z,58.81
2023-02-11T00:31:35.007Z,60.13
2023-02-11T00:34:03.154Z,59.87
2023-02-11T00:36:31.630Z,59.22
2023-02-11T00:39:00.463Z,58.62
2023-02-11T00:41:29.370Z,58.30
2023-02-11T00:43:59.132Z,58.34
2023-02-11T00:46:26.535Z,57.46
2023-02-11T00:48:57.614Z,57.11
2023-02-11T00:51:27.861Z,58.29
2023-02-11T00:53:55.547Z,58.39
2023-02-11T00:56:23.950Z,59.20
2023-02-11T00:58:51.626Z,58.86
2023-02-11T01:01:20.584Z,60.05
2023-02-11T01:03:51.340Z,60.03
2023-02-11T01:06:20.065Z,59.92
2023-02-11T01:08:47.912Z,60.26
2023-02-11T01:11:21.228Z,60.03
2023-02-11T01:13:53.391Z,59.81
2023-02-11T01:16:22.966Z,60.03
2023-02-11T01:18:53.786Z,59.89
2023-02-11T01:21:21.291Z,59.90
2023-02-11T01:23:52.490Z,60.24
2023-02-11T01:26:20.789Z,60.33
2023-02-11T01:28:48.868Z,61.49
2023-02-11T01:31:19.363Z,61.26
2023-02-11T01:33:46.882Z,61.76
2023-02-11T01:36:14.802Z,61.87
2023-02-11T01:38:44.446Z,62.24
2023-02-11T01:41:15.242Z,61.96
2023-02-11T01:43:49.858Z,62.12
2023-02-11T01:46:50.042Z,63.03
2023-02-11T01:49:36.629Z,62.91
2023-02-11T01:52:20.431Z,63.93
2023-02-11T01:55:18.063Z,62.87
2023-02-11T01:57:52.742Z,62.93
2023-02-11T02:00:33.514Z,61.07
2023-02-11T02:03:14.749Z,60.31
2023-02-11T02:06:36.315Z,61.07
2023-02-11T02:09:18.939Z,61.56
2023-02-11T02:11:46.353Z,61.64
2023-02-11T02:14:17.476Z,61.89
2023-02-11T02:16:46.698Z,60.70
2023-02-11T02:20:15.043Z,61.30
2023-02-11T02:22:59.651Z,61.51
2023-02-11T02:26:19.995Z,62.15
2023-02-11T02:29:46.545Z,62.30
2023-02-11T02:32:43.537Z,63.10
2023-02-11T02:35:38.363Z,62.80
2023-02-11T02:38:17.262Z,62.32
2023-02-11T02:41:02.728Z,61.69
2023-02-11T02:43:31.589Z,60.35
2023-02-11T02:46:15.044Z,59.82
2023-02-11T02:48:43.266Z,59.80
2023-02-11T02:51:52.744Z,59.74
2023-02-11T02:55:00.159Z,60.06
2023-02-11T02:57:59.379Z,59.79
2023-02-11T03:01:18.960Z,58.72
2023-02-11T03:04:12.329Z,59.79
2023-02-11T03:07:22.834Z,59.63
2023-02-11T03:10:19.342Z,60.63
2023-02-11T03:12:48.815Z,60.74
2023-02-11T03:15:21.574Z,60.86
2023-02-11T03:17:53.502Z,60.87
2023-02-11T03:20:24.080Z,60.65
2023-02-11T03:23:03.789Z,60.06
2023-02-11T03:25:42.413Z,59.29
2023-02-11T03:28:31.032Z,59.41
2023-02-11T03:31:48.237Z,58.28
2023-02-11T03:34:42.691Z,58.48
2023-02-11T03:37:36.412Z,57.31
2023-02-11T03:40:12.731Z,57.72
2023-02-11T03:43:05.453Z,58.41
2023-02-11T03:45:33.588Z,57.66
2023-02-11T03:48:13.248Z,56.71
2023-02-11T03:50:45.101Z,56.18
2023-02-11T03:53:16.390Z,56.37
2023-02-11T03:55:47.543Z,57.29
2023-02-11T03:58:15.298Z,56.79
2023-02-11T04:00:46.400Z,56.26
2023-02-11T04:03:14.585Z,55.88
2023-02-11T04:05:44.798Z,55.84
2023-02-11T04:08:12.456Z,55.76
2023-02-11T04:10:41.457Z,55.82
2023-02-11T04:13:08.934Z,56.05
2023-02-11T04:15:36.475Z,55.47
2023-02-11T04:18:07.551Z,56.07
2023-02-11T04:20:35.080Z,56.50
2023-02-11T04:23:02.447Z,57.07
2023-02-11T04:25:29.841Z,56.38
2023-02-11T04:27:57.387Z,56.19
2023-02-11T04:30:25.942Z,55.51
2023-02-11T04:32:54.620Z,55.78
2023-02-11T04:35:22.528Z,55.97
2023-02-11T04:37:50.393Z,55.41
2023-02-11T04:40:18.021Z,55.21
2023-02-11T04:42:45.312Z,54.73
2023-02-11T04:45:12.571Z,54.06
2023-02-11T04:47:39.982Z,53.95
2023-02-11T04:50:07.702Z,53.62
2023-02-11T04:52:35.044Z,53.94
2023-02-11T04:55:02.429Z,53.69
2023-02-11T04:57:30.132Z,53.60
2023-02-11T04:59:57.680Z,54.05
2023-02-11T05:02:25.370Z,54.20
2023-02-11T05:04:53.199Z,55.32
2023-02-11T05:07:20.987Z,55.26
2023-02-11T05:09:48.356Z,56.47
2023-02-11T05:12:15.767Z,56.46
2023-02-11T05:14:43.225Z,56.42
2023-02-11T05:17:10.741Z,55.65
2023-02-11T05:19:38.219Z,55.21
2023-02-11T05:22:05.604Z,53.94
2023-02-11T05:24:33.335Z,53.84
2023-02-11T05:27:01.847Z,52.75
2023-02-11T05:29:29.249Z,53.14
2023-02-11T05:31:56.599Z,53.48
2023-02-11T05:34:24.008Z,54.00
2023-02-11T05:37:17.503Z,54.10
2023-02-11T05:39:45.027Z,53.58
2023-02-11T05:42:12.375Z,54.27
2023-02-11T05:44:39.911Z,53.84
2023-02-11T05:47:08.999Z,53.68
2023-02-11T05:49:36.338Z,52.80
2023-02-11T05:52:04.418Z,51.57
2023-02-11T05:54:32.204Z,51.95
2023-02-11T05:57:01.961Z,52.06
2023-02-11T05:59:29.780Z,52.89
2023-02-11T06:02:00.122Z,52.38
2023-02-11T06:04:28.207Z,52.25
2023-02-11T06:06:55.980Z,52.68
2023-02-11T06:09:26.587Z,51.96
2023-02-11T06:11:54.186Z,52.53
2023-02-11T06:14:22.018Z,52.42
2023-02-11T06:16:49.478Z,52.57
2023-02-11T06:19:17.015Z,52.36
2023-02-11T06:21:44.746Z,52.22
2023-02-11T06:24:13.021Z,52.75
2023-02-11T06:26:40.724Z,52.16
2023-02-11T06:29:08.690Z,52.46
2023-02-11T06:31:39.211Z,52.29
2023-02-11T06:34:08.729Z,52.17
2023-02-11T06:36:39.172Z,50.98
2023-02-11T06:39:14.823Z,51.89
2023-02-11T06:41:44.342Z,52.21
2023-02-11T06:44:11.934Z,51.74
2023-02-11T06:46:39.337Z,52.22
2023-02-11T06:49:06.976Z,52.53
2023-02-11T06:51:34.370Z,52.51
2023-02-11T06:54:01.950Z,52.30
2023-02-11T06:56:30.542Z,52.53
2023-02-11T06:59:01.509Z,52.74
2023-02-11T07:01:29.697Z,52.33
2023-02-11T07:03:57.590Z,51.92
2023-02-11T07:06:28.300Z,52.50
2023-02-11T07:08:58.167Z,51.90
2023-02-11T07:11:29.736Z,51.41
2023-02-11T07:14:08.611Z,50.39
2023-02-11T07:16:39.373Z,50.61
2023-02-11T07:19:07.606Z,50.77
2023-02-11T07:21:38.119Z,51.78
2023-02-11T07:24:11.625Z,51.93
2023-02-11T07:26:42.793Z,51.48
2023-02-11T07:29:12.098Z,50.74
2023-02-11T07:31:47.094Z,49.91
2023-02-11T07:34:14.873Z,48.92
2023-02-11T07:36:43.859Z,48.90
2023-02-11T07:39:13.712Z,49.06
2023-02-11T07:41:41.004Z,47.88
2023-02-11T07:44:08.663Z,48.24
2023-02-11T07:46:36.040Z,47.35
2023-02-11T07:49:03.689Z,47.04
2023-02-11T07:51:31.838Z,47.50
2023-02-11T07:54:01.058Z,46.57
2023-02-11T07:56:30.635Z,46.30
2023-02-11T07:59:03.718Z,45.77
2023-02-11T08:01:31.777Z,45.66
2023-02-11T08:04:02.686Z,45.98
2023-02-11T08:06:35.243Z,46.44
2023-02-11T08:09:09.652Z,46.78
2023-02-11T08:11:36.984Z,45.92
2023-02-11T08:14:11.095Z,45.14
2023-02-11T08:16:39.359Z,44.85
2023-02-11T08:19:13.367Z,45.28
2023-02-11T08:21:42.399Z,44.12
2023-02-11T08:24:11.142Z,42.87
2023-02-11T08:26:38.663Z,42.58
2023-02-11T08:29:13.593Z,42.95
2023-02-11T08:31:47.023Z,41.61
2023-02-11T08:34:19.061Z,41.19
2023-02-11T08:36:54.095Z,41.00
2023-02-11T08:39:23.390Z,39.95
2023-02-11T08:41:56.755Z,39.61
2023-02-11T08:44:25.252Z,40.26
2023-02-11T08:46:53.753Z,40.11
2023-02-11T08:49:22.196Z,40.96
2023-02-11T08:51:50.294Z,41.33
2023-02-11T08:54:18.294Z,39.34
2023-02-11T08:56:48.953Z,36.38
2023-02-11T08:59:17.916Z,34.96
2023-02-11T09:01:47.367Z,33.38
2023-02-11T09:04:15.397Z,29.90
2023-02-11T09:06:48.051Z,26.78
2023-02-11T09:09:18.220Z,27.18
2023-02-11T09:11:46.246Z,25.52
2023-02-11T09:14:21.918Z,23.07
2023-02-11T09:16:50.858Z,22.91
2023-02-11T09:19:23.266Z,22.69
2023-02-11T09:21:51.361Z,22.53
2023-02-11T09:24:19.696Z,22.37
2023-02-11T09:26:49.972Z,22.18
2023-02-11T09:29:23.841Z,21.61
2023-02-11T09:32:17.348Z,20.11
2023-02-11T09:34:47.792Z,19.79
2023-02-11T09:37:18.448Z,18.61
2023-02-11T09:39:46.831Z,18.05
2023-02-11T09:42:31.519Z,17.20
2023-02-11T09:45:02.605Z,17.19
2023-02-11T09:47:41.507Z,16.50
2023-02-11T09:50:22.139Z,16.69
2023-02-11T09:53:20.976Z,17.43
2023-02-11T09:56:01.591Z,18.20
2023-02-11T09:58:36.142Z,18.96
2023-02-11T10:01:31.076Z,18.51
2023-02-11T10:05:09.969Z,17.38
2023-02-11T10:08:21.016Z,16.78
2023-02-11T10:10:53.310Z,18.01
2023-02-11T10:13:44.119Z,16.70
2023-02-11T10:17:17.821Z,17.16
2023-02-11T10:20:39.178Z,18.28
2023-02-11T10:23:39.587Z,17.31
2023-02-11T10:26:21.493Z,16.07
2023-02-11T10:29:00.507Z,15.36
2023-02-11T10:31:40.553Z,15.21
2023-02-11T10:34:17.287Z,16.47
2023-02-11T10:36:45.863Z,14.98
2023-02-11T10:39:24.501Z,14.21
2023-02-11T10:42:00.877Z,14.19
2023-02-11T10:44:40.932Z,14.26
2023-02-11T10:48:04.557Z,13.51
2023-02-11T10:50:50.815Z,14.07
2023-02-11T10:53:27.352Z,13.91
2023-02-11T10:56:00.326Z,13.94
2023-02-11T10:59:30.952Z,14.32
2023-02-11T11:02:25.015Z,14.66
2023-02-11T11:04:59.323Z,14.26
2023-02-11T11:07:32.224Z,13.63
2023-02-11T11:10:35.582Z,13.04
2023-02-11T11:13:30.060Z,14.50
2023-02-11T11:16:35.937Z,14.35
2023-02-11T11:20:10.727Z,14.91
2023-02-11T11:23:11.331Z,15.06
2023-02-11T11:26:13.268Z,15.95
2023-02-11T11:29:09.672Z,14.37
2023-02-11T11:32:06.674Z,15.00
2023-02-11T11:34:39.727Z,16.82
2023-02-11T11:37:25.627Z,16.49
2023-02-11T11:40:34.671Z,16.91
2023-02-11T11:43:14.364Z,16.55
2023-02-11T11:46:25.895Z,16.57
2023-02-11T11:49:16.558Z,16.08
2023-02-11T11:52:45.535Z,15.56
2023-02-11T11:55:58.708Z,14.44
2023-02-11T11:58:30.776Z,14.80
2023-02-11T12:01:42.339Z,15.56
2023-02-11T12:04:24.341Z,15.94
2023-02-11T12:07:12.859Z,15.62
2023-02-11T12:10:41.938Z,15.80
2023-02-11T12:13:52.656Z,15.86
2023-02-11T12:16:45.505Z,16.18
2023-02-11T12:19:18.652Z,16.75
2023-02-11T12:22:27.109Z,17.57
2023-02-11T12:25:30.304Z,17.34
2023-02-11T12:28:35.285Z,16.79
2023-02-11T12:31:26.848Z,17.64
2023-02-11T12:34:47.290Z,18.91
2023-02-11T12:37:46.462Z,21.02
2023-02-11T12:40:58.800Z,21.81
2023-02-11T12:43:39.992Z,22.75
2023-02-11T12:47:11.698Z,22.82
2023-02-11T12:50:30.666Z,22.67
2023-02-11T12:53:23.010Z,24.00
2023-02-11T12:56:02.554Z,26.30
2023-02-11T12:59:51.078Z,25.31
2023-02-11T13:02:35.424Z,26.83
2023-02-11T13:05:32.412Z,27.85
2023-02-11T13:08:32.171Z,30.61
2023-02-11T13:11:14.351Z,31.20
2023-02-11T13:14:10.185Z,30.67
2023-02-11T13:16:48.634Z,30.80
2023-02-11T13:19:37.014Z,30.57
2023-02-11T13:22:31.581Z,29.49
2023-02-11T13:25:42.432Z,30.95
2023-02-11T13:28:40.845Z,31.53
2023-02-11T13:31:13.593Z,29.87
2023-02-11T13:33:44.694Z,29.84
2023-02-11T13:36:22.427Z,29.31
2023-02-11T13:48:27.478Z,27.66
2023-02-11T13:52:01.917Z,28.46
2023-02-11T13:55:27.802Z,28.98
2023-02-11T14:04:33.401Z,31.02
2023-02-11T14:18:47.042Z,34.67
2023-02-11T14:21:29.585Z,34.82
2023-02-11T14:24:02.522Z,35.16
2023-02-11T14:26:55.126Z,35.04
2023-02-11T14:29:40.821Z,34.69
2023-02-11T14:32:38.809Z,35.00
2023-02-11T14:35:29.514Z,35.01
2023-02-11T14:38:23.800Z,35.36
2023-02-11T14:41:20.825Z,35.64
2023-02-11T14:44:02.268Z,35.37
2023-02-11T14:46:30.788Z,35.99
2023-02-11T14:49:03.720Z,35.44
2023-02-11T14:51:41.361Z,34.88
2023-02-11T14:54:24.019Z,35.59
2023-02-11T14:57:18.165Z,34.60
2023-02-11T14:59:59.478Z,34.63
2023-02-11T15:02:38.956Z,35.45
2023-02-11T15:05:29.049Z,35.24
2023-02-11T15:08:00.773Z,36.19
2023-02-11T15:10:44.337Z,36.73
2023-02-11T15:13:27.171Z,36.78
2023-02-11T15:16:25.143Z,36.71
2023-02-11T15:19:01.771Z,36.76
2023-02-11T15:21:34.732Z,36.90
2023-02-11T15:24:28.650Z,36.82
2023-02-11T15:27:12.723Z,36.91
2023-02-11T15:29:46.548Z,37.69
2023-02-11T15:32:25.632Z,38.53
2023-02-11T15:34:56.809Z,38.15
2023-02-11T15:37:32.387Z,38.07
2023-02-11T15:40:23.139Z,38.27
2023-02-11T15:43:09.884Z,38.22
2023-02-11T15:45:45.312Z,37.59
2023-02-11T15:48:38.568Z,37.31
2023-02-11T15:51:35.516Z,37.63
2023-02-11T15:54:16.752Z,37.45
2023-02-11T15:57:03.583Z,38.25
2023-02-11T15:59:46.381Z,39.44
2023-02-11T16:02:31.004Z,39.85
2023-02-11T16:05:09.752Z,40.23
2023-02-11T16:07:50.978Z,40.30
2023-02-11T16:10:35.237Z,40.80
2023-02-11T16:13:08.327Z,40.95
2023-02-11T16:15:38.324Z,41.33
2023-02-11T16:18:38.269Z,41.67
2023-02-11T16:21:18.317Z,41.92
2023-02-11T16:23:58.242Z,42.20
2023-02-11T16:26:50.555Z,43.59
2023-02-11T16:29:28.053Z,45.25
2023-02-11T16:32:23.752Z,44.48
2023-02-11T16:35:00.980Z,43.56
2023-02-11T16:37:28.728Z,43.91
2023-02-11T16:39:59.093Z,44.44
2023-02-11T16:42:26.444Z,44.77
2023-02-11T16:44:53.957Z,43.62
2023-02-11T16:47:28.080Z,43.28
2023-02-11T16:49:57.176Z,43.67
2023-02-11T16:52:25.675Z,42.96
2023-02-11T16:54:53.608Z,42.60
2023-02-11T16:57:26.931Z,43.21
2023-02-11T16:59:55.672Z,43.35
2023-02-11T17:02:30.842Z,43.47
2023-02-11T17:05:03.004Z,43.12
2023-02-11T17:07:30.989Z,43.69
2023-02-11T17:09:58.568Z,44.07
2023-02-11T17:12:26.124Z,44.30
2023-02-11T17:14:54.463Z,43.97
2023-02-11T17:17:24.752Z,43.85
2023-02-11T17:19:51.975Z,44.04
2023-02-11T17:22:19.382Z,43.88
2023-02-11T17:24:46.531Z,44.53
2023-02-11T17:27:14.027Z,43.92
2023-02-11T17:29:41.670Z,43.88
2023-02-11T17:32:09.477Z,43.62
2023-02-11T17:34:36.964Z,44.49
2023-02-11T17:37:09.688Z,43.99
2023-02-11T17:39:40.501Z,43.82
2023-02-11T17:42:11.720Z,43.73
2023-02-11T17:44:39.058Z,43.79
2023-02-11T17:47:06.500Z,43.91
2023-02-11T17:49:33.986Z,44.44
2023-02-11T17:52:01.506Z,43.75
2023-02-11T17:54:28.948Z,44.18
2023-02-11T17:56:58.309Z,44.60
2023-02-11T17:59:26.512Z,44.24
2023-02-11T18:01:54.074Z,44.08
2023-02-11T18:04:25.011Z,44.26
2023-02-11T18:06:58.908Z,44.42
2023-02-11T18:09:27.167Z,44.20
2023-02-11T18:11:55.368Z,43.72
2023-02-11T18:14:32.442Z,43.64
2023-02-11T18:17:00.286Z,43.13
2023-02-11T18:19:30.617Z,42.94
2023-02-11T18:22:01.065Z,43.24
2023-02-11T18:24:28.951Z,43.56
2023-02-11T18:27:01.377Z,43.70
2023-02-11T18:29:29.711Z,43.82
2023-02-11T18:31:58.060Z,43.79
2023-02-11T18:34:26.328Z,43.89
2023-02-11T18:36:54.194Z,44.27
2023-02-11T18:39:24.374Z,44.22
2023-02-11T18:41:54.647Z,44.45
2023-02-11T18:44:24.022Z,45.05
2023-02-11T18:46:52.937Z,44.80
2023-02-11T18:49:21.182Z,44.58
2023-02-11T18:51:52.215Z,44.57
2023-02-11T18:54:22.455Z,45.07
2023-02-11T18:56:50.063Z,44.68
2023-02-11T18:59:17.282Z,44.34
2023-02-11T19:01:46.922Z,44.07
2023-02-11T19:04:19.668Z,44.27
2023-02-11T19:06:51.625Z,44.20
2023-02-11T19:09:23.049Z,45.12
2023-02-11T19:11:50.900Z,44.78
2023-02-11T19:14:25.812Z,44.23
2023-02-11T19:16:59.587Z,43.73
2023-02-11T19:19:35.494Z,43.53
2023-02-11T19:22:08.573Z,44.04
2023-02-11T19:24:39.553Z,44.83
2023-02-11T19:27:06.984Z,45.54
2023-02-11T19:29:35.209Z,46.31
2023-02-11T19:32:07.048Z,46.79
2023-02-11T19:34:43.323Z,46.50
2023-02-11T19:37:15.506Z,46.41
2023-02-11T19:39:44.414Z,46.57
2023-02-11T19:42:13.079Z,46.60
2023-02-11T19:44:40.306Z,46.91
2023-02-11T19:47:07.900Z,47.12
2023-02-11T19:49:35.722Z,47.11
2023-02-11T19:52:03.661Z,47.71
2023-02-11T19:54:31.089Z,48.64
2023-02-11T19:56:58.955Z,48.68
2023-02-11T19:59:26.888Z,48.24
2023-02-11T20:01:54.501Z,47.06
2023-02-11T20:04:22.091Z,47.11
2023-02-11T20:06:49.511Z,46.65
2023-02-11T20:09:17.038Z,47.31
2023-02-11T20:11:44.783Z,47.69
2023-02-11T20:14:16.993Z,48.02
2023-02-11T20:16:49.005Z,47.80
2023-02-11T20:19:21.916Z,47.79
2023-02-11T20:21:55.815Z,47.42
2023-02-11T20:24:25.246Z,47.57
2023-02-11T20:26:57.124Z,47.95
2023-02-11T20:29:25.863Z,48.06
2023-02-11T20:31:54.716Z,48.33
2023-02-11T20:34:22.443Z,48.78
2023-02-11T20:36:53.096Z,48.54
2023-02-11T20:39:23.693Z,48.03
2023-02-11T20:41:57.641Z,48.02
2023-02-11T20:44:27.397Z,48.48
2023-02-11T20:46:57.945Z,48.61
2023-02-11T20:49:26.892Z,48.76
2023-02-11T20:51:55.570Z,48.86
2023-02-11T20:54:24.416Z,49.08
2023-02-11T20:56:54.078Z,49.48
2023-02-11T20:59:21.432Z,49.76
2023-02-11T21:01:56.033Z,50.02
2023-02-11T21:04:35.793Z,50.14
2023-02-11T21:07:03.166Z,50.12
2023-02-11T21:09:33.284Z,50.66
2023-02-11T21:12:02.321Z,50.80
2023-02-11T21:14:31.195Z,50.42
2023-02-11T21:17:04.159Z,50.27
2023-02-11T21:19:31.394Z,50.18
2023-02-11T21:22:00.615Z,49.37
2023-02-11T21:24:28.218Z,49.12
2023-02-11T21:26:56.284Z,49.10
2023-02-11T21:29:23.569Z,49.38
2023-02-11T21:31:51.446Z,49.73
2023-02-11T21:34:20.797Z,49.97
2023-02-11T21:36:51.148Z,50.11
2023-02-11T21:39:20.248Z,49.80
2023-02-11T21:41:47.827Z,49.64
2023-02-11T21:44:15.321Z,50.21
2023-02-11T21:46:42.645Z,50.06
2023-02-11T21:49:10.198Z,49.12
2023-02-11T21:51:37.471Z,47.77
2023-02-11T21:54:05.144Z,47.86
2023-02-11T21:56:35.121Z,48.54
2023-02-11T21:59:02.564Z,49.38
2023-02-11T22:01:35.559Z,49.70
2023-02-11T22:04:03.851Z,49.40
2023-02-11T22:06:37.480Z,49.62
2023-02-11T22:09:11.144Z,50.17
2023-02-11T22:11:38.723Z,50.62
2023-02-11T22:14:06.404Z,50.61
2023-02-11T22:16:33.748Z,50.95
2023-02-11T22:19:02.560Z,50.83
2023-02-11T22:21:30.422Z,50.53
2023-02-11T22:24:00.346Z,50.18
2023-02-11T22:26:28.505Z,50.43
2023-02-11T22:28:57.531Z,50.21
2023-02-11T22:31:33.458Z,48.99
2023-02-11T22:34:04.699Z,49.43
2023-02-11T22:36:40.402Z,50.33
2023-02-11T22:39:14.459Z,50.75
2023-02-11T22:44:14.077Z,49.95
2023-02-11T22:46:41.282Z,49.42
2023-02-11T22:49:10.343Z,49.19
2023-02-11T22:51:39.932Z,49.19
2023-02-11T22:54:14.673Z,48.70
2023-02-11T22:56:42.944Z,48.20
2023-02-11T22:59:15.405Z,48.65
2023-02-11T23:01:43.568Z,48.88
2023-02-11T23:04:16.084Z,49.13
2023-02-11T23:09:14.902Z,50.18
2023-02-11T23:11:42.885Z,49.81
2023-02-11T23:14:12.175Z,50.00
2023-02-11T23:16:40.099Z,49.89
2023-02-11T23:19:10.399Z,48.32
2023-02-11T23:21:39.943Z,47.67
2023-02-11T23:24:17.292Z,47.89
2023-02-11T23:26:45.172Z,47.81
2023-02-11T23:29:13.109Z,49.15
2023-02-11T23:31:45.213Z,49.79
2023-02-11T23:34:17.211Z,49.35
2023-02-11T23:36:44.720Z,49.83
2023-02-11T23:39:15.922Z,50.27
2023-02-11T23:41:43.436Z,50.09
2023-02-11T23:44:11.939Z,50.15
2023-02-11T23:46:39.500Z,50.30
2023-02-11T23:49:10.302Z,50.05
2023-02-11T23:51:37.581Z,49.61
2023-02-11T23:54:04.921Z,49.54
2023-02-11T23:56:32.337Z,48.64
2023-02-11T23:58:59.756Z,49.73
